Riviere-Saint-Jean, Canada
Current Conditions -  °F | °C
As of 6:00 PM on Monday 22 Dec 2014 (Local Time) from CYGV Reporting Station
Overcast Overcast  
Wind Chill: -10°   Ceiling: 1300
Heat Index: -6°   Visibility: 9mi
Dew Point: -8°   Wind: 6mph
Humidity: 86%   Direction: 360°N
Pressure: 30.44"   Gusts: NA
Location:  50.28°N, 64.33°W
Report Text: CYGV 222300Z AUTO 36005KT 9SM OVC013 M06/M08 A3044 RMK SLP311
Loading
Personal Weather Stations






























Interactive Weather Map New forecast layout! Learn more

10-Day Weather Forecast

Advertisements
Track Severe Weather on mobile